Time;durP1;ratioP1;P1;durP2;ratioP2;P2;SDS_P1;SDS_P2;PMS_P1;PMS_P2;Temp;Humidity;BMP_temperature;BMP_pressure;BME280_temperature;BME280_humidity;BME280_pressure;Samples;Min_cycle;Max_cycle;Signal;HPM_P1;HPM_P2
2023/12/22 00:01:31;;;;;;;21.40;4.17;;;;;;;;;;10374624;28;21042;-69
2023/12/22 00:06:31;;;;;;;16.20;3.97;;;;;;;;;;10380644;28;20193;-69
2023/12/22 00:11:31;;;;;;;23.57;3.50;;;;;;;;;;10373573;28;20221;-69
2023/12/22 00:16:31;;;;;;;18.57;3.77;;;;;;;;;;10373846;28;20217;-68
2023/12/22 00:21:31;;;;;;;15.00;3.90;;;;;;;;;;10373671;28;20565;-69
2023/12/22 00:26:32;;;;;;;14.90;3.60;;;;;;;;;;10379939;28;20193;-68
2023/12/22 00:31:32;;;;;;;13.97;3.17;;;;;;;;;;10373244;28;20613;-69
2023/12/22 00:36:32;;;;;;;24.57;3.63;;;;;;;;;;10371823;28;20228;-69
2023/12/22 00:41:32;;;;;;;13.23;2.90;;;;;;;;;;10373054;28;20220;-68
2023/12/22 00:46:32;;;;;;;20.23;3.87;;;;;;;;;;10372881;28;20201;-68
2023/12/22 00:51:32;;;;;;;19.67;3.63;;;;;;;;;;10372173;28;20241;-68
2023/12/22 00:56:33;;;;;;;16.70;3.00;;;;;;;;;;10375044;28;20766;-69
2023/12/22 01:01:33;;;;;;;11.30;2.87;;;;;;;;;;10372015;28;20240;-68
2023/12/22 01:06:36;;;;;;;17.20;3.27;;;;;;;;;;10371776;28;20671;-68
2023/12/22 01:11:37;;;;;;;17.07;3.17;;;;;;;;;;10371849;28;20239;-69
2023/12/22 01:16:37;;;;;;;12.40;2.73;;;;;;;;;;10374052;28;20224;-68
2023/12/22 01:21:37;;;;;;;20.17;3.50;;;;;;;;;;10370511;28;20633;-68
2023/12/22 01:26:37;;;;;;;14.43;2.83;;;;;;;;;;10370992;28;20194;-68
2023/12/22 01:31:38;;;;;;;26.57;4.03;;;;;;;;;;10370959;28;20223;-67
2023/12/22 01:36:38;;;;;;;18.13;3.57;;;;;;;;;;10373463;28;20217;-68
2023/12/22 01:41:38;;;;;;;17.57;3.53;;;;;;;;;;10370344;28;20217;-67
2023/12/22 01:46:38;;;;;;;17.43;3.57;;;;;;;;;;10370368;28;20224;-66
2023/12/22 01:51:39;;;;;;;19.20;3.83;;;;;;;;;;10372693;28;20248;-67
2023/12/22 01:56:40;;;;;;;19.77;3.33;;;;;;;;;;10370134;28;20224;-67
2023/12/22 02:01:40;;;;;;;24.38;4.00;;;;;;;;;;10369357;28;20209;-67
2023/12/22 02:06:42;;;;;;;25.23;4.03;;;;;;;;;;10369762;28;20189;-67
2023/12/22 02:11:42;;;;;;;23.63;4.60;;;;;;;;;;10378792;28;20794;-68
2023/12/22 02:16:54;;;;;;;27.97;4.90;;;;;;;;;;10369876;28;20274;-68
2023/12/22 02:22:04;;;;;;;25.17;6.23;;;;;;;;;;10368002;28;20830;-67
2023/12/22 02:27:06;;;;;;;30.80;4.43;;;;;;;;;;10370181;28;20193;-67
2023/12/22 02:32:08;;;;;;;27.83;3.93;;;;;;;;;;10371818;28;20208;-67
2023/12/22 02:37:09;;;;;;;30.87;4.70;;;;;;;;;;10369148;28;20220;-67
2023/12/22 02:42:09;;;;;;;24.40;3.73;;;;;;;;;;10368921;28;20209;-67
2023/12/22 02:47:09;;;;;;;24.67;4.47;;;;;;;;;;10368818;28;20185;-66
2023/12/22 02:52:10;;;;;;;21.63;4.80;;;;;;;;;;10371450;28;20233;-66
2023/12/22 02:57:10;;;;;;;27.77;4.43;;;;;;;;;;10370887;28;20703;-67
2023/12/22 03:02:10;;;;;;;23.20;4.93;;;;;;;;;;10368798;28;20205;-66
2023/12/22 03:07:10;;;;;;;23.10;3.37;;;;;;;;;;10368335;28;20195;-67
2023/12/22 03:12:11;;;;;;;21.33;3.70;;;;;;;;;;10370937;28;20638;-66
2023/12/22 03:17:11;;;;;;;28.03;5.00;;;;;;;;;;10368279;28;20213;-66
2023/12/22 03:22:11;;;;;;;18.60;3.93;;;;;;;;;;10368063;28;20202;-66
2023/12/22 03:27:16;;;;;;;24.77;3.70;;;;;;;;;;10370943;28;20193;-66
2023/12/22 03:32:16;;;;;;;23.67;4.87;;;;;;;;;;10367814;28;20482;-67
2023/12/22 03:37:16;;;;;;;21.50;3.83;;;;;;;;;;10367784;28;20841;-66
2023/12/22 03:42:16;;;;;;;17.30;3.80;;;;;;;;;;10367636;28;20197;-67
2023/12/22 03:47:17;;;;;;;15.93;3.63;;;;;;;;;;10375530;28;20197;-66
2023/12/22 03:52:17;;;;;;;26.23;3.53;;;;;;;;;;10374867;28;20656;-67
2023/12/22 03:57:17;;;;;;;20.23;3.47;;;;;;;;;;10374467;28;20747;-67
2023/12/22 04:02:18;;;;;;;12.67;3.43;;;;;;;;;;10374703;28;20225;-66
2023/12/22 04:07:18;;;;;;;19.47;3.23;;;;;;;;;;10376013;28;20200;-67
2023/12/22 04:12:18;;;;;;;24.33;3.83;;;;;;;;;;10374036;28;20233;-67
2023/12/22 04:17:18;;;;;;;22.83;3.07;;;;;;;;;;10373996;28;20213;-67
2023/12/22 04:22:18;;;;;;;14.87;3.07;;;;;;;;;;10373955;28;20213;-67
2023/12/22 04:27:18;;;;;;;10.70;2.10;;;;;;;;;;10375141;28;20599;-66
2023/12/22 04:32:18;;;;;;;16.13;2.87;;;;;;;;;;10373541;28;20208;-67
2023/12/22 04:37:19;;;;;;;14.53;2.83;;;;;;;;;;10373191;28;20217;-66
2023/12/22 04:42:19;;;;;;;11.83;2.80;;;;;;;;;;10372963;28;20205;-66
2023/12/22 04:47:19;;;;;;;19.27;2.80;;;;;;;;;;10374270;28;20209;-66
2023/12/22 04:52:20;;;;;;;17.27;2.93;;;;;;;;;;10371939;28;20275;-66
2023/12/22 04:57:21;;;;;;;17.33;2.47;;;;;;;;;;10372053;28;20232;-66
2023/12/22 05:02:22;;;;;;;8.37;1.73;;;;;;;;;;10373407;28;20460;-65
2023/12/22 05:07:22;;;;;;;7.80;1.83;;;;;;;;;;10372254;28;20216;-66
2023/12/22 05:12:22;;;;;;;2.50;1.20;;;;;;;;;;10371780;28;20297;-65
2023/12/22 05:17:22;;;;;;;3.03;1.57;;;;;;;;;;10371560;28;20213;-66
2023/12/22 05:22:23;;;;;;;8.90;2.03;;;;;;;;;;10373342;28;20209;-66
2023/12/22 05:27:23;;;;;;;9.87;1.93;;;;;;;;;;10371312;28;20276;-66
2023/12/22 05:32:23;;;;;;;5.53;1.47;;;;;;;;;;10371386;28;20237;-66
2023/12/22 05:37:23;;;;;;;8.27;1.67;;;;;;;;;;10370822;28;20706;-66
2023/12/22 05:42:23;;;;;;;5.63;1.70;;;;;;;;;;10372777;28;20205;-66
2023/12/22 05:47:23;;;;;;;13.23;2.10;;;;;;;;;;10370536;28;20196;-66
2023/12/22 05:52:24;;;;;;;5.27;1.97;;;;;;;;;;10370315;28;20247;-66
2023/12/22 05:57:27;;;;;;;10.27;2.37;;;;;;;;;;10370143;28;20221;-66
2023/12/22 06:02:27;;;;;;;9.47;2.20;;;;;;;;;;10371709;28;20213;-66
2023/12/22 06:07:27;;;;;;;8.00;2.03;;;;;;;;;;10369843;28;20189;-67
2023/12/22 06:12:27;;;;;;;12.23;3.50;;;;;;;;;;10369620;28;20279;-66
2023/12/22 06:17:27;;;;;;;10.27;2.00;;;;;;;;;;10370423;28;20300;-67
2023/12/22 06:22:27;;;;;;;9.93;2.83;;;;;;;;;;10371998;28;20212;-67
2023/12/22 06:27:28;;;;;;;10.20;2.07;;;;;;;;;;10369609;28;20566;-67
2023/12/22 06:37:54;;;;;;;8.77;2.13;;;;;;;;;;10240050;29;20729;-69
2023/12/22 06:42:54;;;;;;;12.47;2.43;;;;;;;;;;10246808;28;20597;-68
2023/12/22 06:47:55;;;;;;;3.20;1.23;;;;;;;;;;10246922;28;20207;-68
2023/12/22 06:52:55;;;;;;;8.43;2.40;;;;;;;;;;10243098;28;20218;-69
2023/12/22 06:57:55;;;;;;;6.47;1.63;;;;;;;;;;10245985;29;20237;-68
2023/12/22 07:02:56;;;;;;;11.67;2.10;;;;;;;;;;10247100;28;20771;-68
2023/12/22 07:07:56;;;;;;;10.90;2.53;;;;;;;;;;10245655;28;20191;-68
2023/12/22 07:12:57;;;;;;;12.63;2.30;;;;;;;;;;10241471;29;20218;-67
2023/12/22 07:17:57;;;;;;;6.17;1.77;;;;;;;;;;10246055;28;20214;-68
2023/12/22 07:22:57;;;;;;;11.13;2.00;;;;;;;;;;10253490;29;20219;-68
2023/12/22 07:27:57;;;;;;;11.70;2.00;;;;;;;;;;10253560;29;20438;-68
2023/12/22 07:32:57;;;;;;;12.20;2.43;;;;;;;;;;10252738;28;20733;-68
2023/12/22 07:37:58;;;;;;;16.93;2.30;;;;;;;;;;10292898;28;20567;-68
2023/12/22 07:42:58;;;;;;;18.27;2.50;;;;;;;;;;10293553;28;20202;-68
2023/12/22 07:47:58;;;;;;;5.50;2.03;;;;;;;;;;10293347;28;20183;-68
2023/12/22 07:52:58;;;;;;;10.40;2.40;;;;;;;;;;10285793;28;20693;-68
2023/12/22 07:57:59;;;;;;;10.70;2.53;;;;;;;;;;10290919;28;20214;-68
2023/12/22 08:03:00;;;;;;;6.30;2.77;;;;;;;;;;10291496;28;20289;-68
2023/12/22 08:08:00;;;;;;;15.33;2.23;;;;;;;;;;10289433;28;20205;-67
2023/12/22 08:13:00;;;;;;;6.90;2.47;;;;;;;;;;10287696;28;20300;-67
2023/12/22 08:18:00;;;;;;;9.17;2.10;;;;;;;;;;10290431;28;20222;-66
2023/12/22 08:23:01;;;;;;;9.27;2.97;;;;;;;;;;10290300;28;20219;-67
2023/12/22 08:28:01;;;;;;;3.57;1.70;;;;;;;;;;10284514;28;20198;-66
2023/12/22 08:33:01;;;;;;;5.03;1.80;;;;;;;;;;10289145;28;20292;-67
2023/12/22 08:38:02;;;;;;;5.90;1.50;;;;;;;;;;10286912;28;20966;-67
2023/12/22 08:43:02;;;;;;;4.87;1.30;;;;;;;;;;10281546;28;20948;-67
2023/12/22 08:53:50;;;;;;;5.13;1.60;;;;;;;;;;10223143;29;20208;-67
2023/12/22 08:58:54;;;;;;;9.73;2.00;;;;;;;;;;10278007;28;20232;-66
2023/12/22 09:03:55;;;;;;;8.47;1.83;;;;;;;;;;10288162;28;20245;-67
2023/12/22 09:08:55;;;;;;;5.00;1.33;;;;;;;;;;10288720;28;20342;-67
2023/12/22 09:13:55;;;;;;;5.83;1.57;;;;;;;;;;10287283;28;20293;-67
2023/12/22 09:18:55;;;;;;;5.20;1.70;;;;;;;;;;10287105;28;20222;-67
2023/12/22 09:23:56;;;;;;;3.07;1.70;;;;;;;;;;10287695;28;21066;-65
2023/12/22 09:28:56;;;;;;;7.70;2.47;;;;;;;;;;10287332;28;20286;-67
2023/12/22 09:33:57;;;;;;;5.80;1.70;;;;;;;;;;10285703;28;20238;-67
2023/12/22 09:38:57;;;;;;;6.10;2.40;;;;;;;;;;10286557;28;20233;-67
2023/12/22 09:43:57;;;;;;;6.70;1.77;;;;;;;;;;10285259;28;20207;-67
2023/12/22 09:48:58;;;;;;;6.00;1.63;;;;;;;;;;10286496;28;20197;-67
2023/12/22 09:53:59;;;;;;;8.20;1.60;;;;;;;;;;10286527;28;20708;-67
2023/12/22 09:58:59;;;;;;;7.40;1.87;;;;;;;;;;10285265;28;20214;-67
2023/12/22 10:04:00;;;;;;;4.13;1.93;;;;;;;;;;10281795;28;20213;-67
2023/12/22 10:09:00;;;;;;;5.63;1.50;;;;;;;;;;10285908;28;20190;-67
2023/12/22 10:14:01;;;;;;;5.43;2.33;;;;;;;;;;10285139;28;20720;-67
2023/12/22 10:19:02;;;;;;;5.00;1.87;;;;;;;;;;10267379;28;20237;-67
2023/12/22 10:24:03;;;;;;;7.97;1.77;;;;;;;;;;10284701;28;20685;-67
2023/12/22 10:29:03;;;;;;;1.83;1.30;;;;;;;;;;10286185;28;20276;-67
2023/12/22 10:34:03;;;;;;;6.33;1.77;;;;;;;;;;10285121;28;20226;-67
2023/12/22 10:39:04;;;;;;;4.90;1.30;;;;;;;;;;10278667;28;20237;-66
2023/12/22 10:44:04;;;;;;;3.60;1.10;;;;;;;;;;10284143;28;20630;-67
2023/12/22 10:49:04;;;;;;;7.07;1.40;;;;;;;;;;10282995;28;20886;-67
2023/12/22 10:54:05;;;;;;;3.60;1.03;;;;;;;;;;10286357;28;20217;-66
2023/12/22 10:59:06;;;;;;;6.40;1.53;;;;;;;;;;10288217;28;20264;-67
2023/12/22 11:04:16;;;;;;;2.77;1.50;;;;;;;;;;10290571;28;20220;-66
2023/12/22 11:09:17;;;;;;;3.27;1.30;;;;;;;;;;10289849;28;20198;-67
2023/12/22 11:14:19;;;;;;;3.37;1.77;;;;;;;;;;10291580;28;20225;-66
2023/12/22 11:19:20;;;;;;;1.63;1.10;;;;;;;;;;10287500;28;20214;-67
2023/12/22 11:24:21;;;;;;;8.90;1.60;;;;;;;;;;10291988;28;20296;-68
2023/12/22 11:29:22;;;;;;;3.43;1.50;;;;;;;;;;10293222;28;20193;-68
2023/12/22 11:34:24;;;;;;;6.67;1.67;;;;;;;;;;10286099;28;20242;-68
2023/12/22 11:39:25;;;;;;;9.50;2.50;;;;;;;;;;10289733;28;20274;-68
2023/12/22 11:44:25;;;;;;;9.30;2.33;;;;;;;;;;10290876;28;20209;-67
2023/12/22 11:49:31;;;;;;;7.65;2.25;;;;;;;;;;10289664;28;20197;-68
2023/12/22 11:54:43;;;;;;;10.30;3.00;;;;;;;;;;10284358;28;20225;-68
2023/12/22 11:59:44;;;;;;;13.17;2.30;;;;;;;;;;10289230;28;20678;-68
2023/12/22 12:04:47;;;;;;;7.80;2.13;;;;;;;;;;10288959;28;20210;-68
2023/12/22 12:09:47;;;;;;;17.03;2.70;;;;;;;;;;10288709;28;20690;-68
2023/12/22 12:14:51;;;;;;;9.77;2.30;;;;;;;;;;10284583;28;20207;-67
2023/12/22 12:19:51;;;;;;;11.87;2.67;;;;;;;;;;10289337;28;20591;-68
2023/12/22 12:24:51;;;;;;;12.17;2.67;;;;;;;;;;10288618;28;20222;-68
2023/12/22 12:29:51;;;;;;;13.63;2.50;;;;;;;;;;10285235;28;20669;-69
2023/12/22 12:34:52;;;;;;;18.05;3.30;;;;;;;;;;10283371;28;20763;-69
2023/12/22 12:39:56;;;;;;;9.57;2.60;;;;;;;;;;10288540;28;20227;-69
2023/12/22 12:44:56;;;;;;;10.30;2.23;;;;;;;;;;10287931;28;20293;-68
2023/12/22 12:49:58;;;;;;;6.23;1.53;;;;;;;;;;10287631;28;20236;-67
2023/12/22 12:54:59;;;;;;;12.17;1.77;;;;;;;;;;10285625;28;20221;-68
2023/12/22 13:00:00;;;;;;;4.23;1.37;;;;;;;;;;10288094;28;20210;-66
2023/12/22 13:05:04;;;;;;;5.93;2.50;;;;;;;;;;10287728;28;20218;-66
2023/12/22 13:10:04;;;;;;;7.23;1.57;;;;;;;;;;10284204;28;20332;-67
2023/12/22 13:15:04;;;;;;;4.20;1.63;;;;;;;;;;10287244;28;20759;-66
2023/12/22 13:20:05;;;;;;;1.43;1.10;;;;;;;;;;10285395;28;20215;-67
2023/12/22 13:25:05;;;;;;;4.83;1.40;;;;;;;;;;10285767;28;20300;-67
2023/12/22 13:30:06;;;;;;;4.20;1.10;;;;;;;;;;10282716;28;20198;-66
2023/12/22 13:35:06;;;;;;;1.00;0.90;;;;;;;;;;10285608;28;20238;-67
2023/12/22 13:40:07;;;;;;;2.30;0.90;;;;;;;;;;10285691;28;20226;-68
2023/12/22 13:45:10;;;;;;;2.47;1.07;;;;;;;;;;10280664;28;20464;-67
2023/12/22 13:50:16;;;;;;;1.00;0.90;;;;;;;;;;10285686;28;20199;-67
2023/12/22 13:55:17;;;;;;;0.80;0.80;;;;;;;;;;10286057;28;20688;-67
2023/12/22 14:00:20;;;;;;;3.83;0.90;;;;;;;;;;10285985;28;20253;-67
2023/12/22 14:05:20;;;;;;;1.20;1.03;;;;;;;;;;10285960;28;20207;-67
2023/12/22 14:10:21;;;;;;;5.53;1.40;;;;;;;;;;10282523;28;20669;-67
2023/12/22 14:15:23;;;;;;;1.00;0.83;;;;;;;;;;10285539;28;20908;-68
2023/12/22 14:20:24;;;;;;;1.30;1.20;;;;;;;;;;10284705;28;20218;-67
2023/12/22 14:25:26;;;;;;;0.80;0.80;;;;;;;;;;10281060;28;20207;-67
2023/12/22 14:30:26;;;;;;;1.53;1.40;;;;;;;;;;10284780;28;20635;-67
2023/12/22 14:35:26;;;;;;;4.70;3.27;;;;;;;;;;10284683;28;20343;-67
2023/12/22 14:40:27;;;;;;;2.50;1.37;;;;;;;;;;10284381;28;20505;-66
2023/12/22 14:45:28;;;;;;;3.13;2.50;;;;;;;;;;10281129;28;20493;-66
2023/12/22 14:50:28;;;;;;;1.58;1.48;;;;;;;;;;10284113;28;20638;-66
2023/12/22 14:55:28;;;;;;;2.67;2.03;;;;;;;;;;10282466;28;20297;-66
2023/12/22 15:00:28;;;;;;;3.40;2.00;;;;;;;;;;10282904;28;20233;-68
2023/12/22 15:05:29;;;;;;;3.10;2.00;;;;;;;;;;10283488;28;20508;-67
2023/12/22 15:10:29;;;;;;;2.00;1.70;;;;;;;;;;10283738;28;20197;-67
2023/12/22 15:15:30;;;;;;;2.70;1.30;;;;;;;;;;10283937;28;20219;-67
2023/12/22 15:20:30;;;;;;;1.00;1.00;;;;;;;;;;10284243;28;20228;-68
2023/12/22 15:25:30;;;;;;;1.13;1.10;;;;;;;;;;10278981;28;20641;-68
2023/12/22 15:30:30;;;;;;;1.00;1.00;;;;;;;;;;10284036;28;20195;-68
2023/12/22 15:35:30;;;;;;;2.00;1.60;;;;;;;;;;10283320;28;20272;-68
2023/12/22 15:40:31;;;;;;;1.93;1.43;;;;;;;;;;10285742;28;20213;-68
2023/12/22 15:45:54;;;;;;;1.60;1.50;;;;;;;;;;10287988;28;20220;-68
2023/12/22 15:51:07;;;;;;;1.30;1.30;;;;;;;;;;10366772;23;20233;-67
2023/12/22 15:56:11;;;;;;;2.10;1.47;;;;;;;;;;10369899;28;21036;-67
2023/12/22 16:01:14;;;;;;;8.80;2.90;;;;;;;;;;10365024;28;20232;-67
2023/12/22 16:06:14;;;;;;;3.87;1.53;;;;;;;;;;10369392;28;20679;-66
2023/12/22 16:11:14;;;;;;;2.60;1.83;;;;;;;;;;10366528;28;20212;-67
2023/12/22 16:16:18;;;;;;;3.50;2.50;;;;;;;;;;10367068;28;20198;-67
2023/12/22 16:21:18;;;;;;;2.33;2.10;;;;;;;;;;10365508;28;20217;-68
2023/12/22 16:26:19;;;;;;;2.73;2.27;;;;;;;;;;10369450;28;20181;-68
2023/12/22 16:31:20;;;;;;;2.20;2.00;;;;;;;;;;10367211;28;20718;-69
2023/12/22 16:36:21;;;;;;;2.13;1.90;;;;;;;;;;10369478;28;20288;-69
2023/12/22 16:41:21;;;;;;;1.97;1.87;;;;;;;;;;10364055;28;20204;-70
2023/12/22 16:46:21;;;;;;;2.30;1.83;;;;;;;;;;10369259;28;20205;-70
2023/12/22 16:51:21;;;;;;;11.40;4.43;;;;;;;;;;10367570;28;20488;-70
2023/12/22 16:56:22;;;;;;;7.00;3.27;;;;;;;;;;10370205;28;20181;-70
2023/12/22 17:01:22;;;;;;;4.63;2.90;;;;;;;;;;10357325;28;20213;-67
2023/12/22 17:06:22;;;;;;;5.20;2.03;;;;;;;;;;10369110;28;20181;-65
2023/12/22 17:11:22;;;;;;;7.83;2.57;;;;;;;;;;10369192;28;20224;-65
2023/12/22 17:16:22;;;;;;;9.07;3.47;;;;;;;;;;10368027;28;20239;-65
2023/12/22 17:21:22;;;;;;;4.83;1.97;;;;;;;;;;10368424;28;20208;-65
2023/12/22 17:26:23;;;;;;;2.70;1.53;;;;;;;;;;10367156;28;20284;-64
2023/12/22 17:31:23;;;;;;;4.57;1.63;;;;;;;;;;10363403;28;20726;-65
2023/12/22 17:36:30;;;;;;;1.53;1.43;;;;;;;;;;10367527;28;20424;-65
2023/12/22 17:41:30;;;;;;;1.20;1.10;;;;;;;;;;10369718;28;20292;-65
2023/12/22 17:46:30;;;;;;;1.00;1.00;;;;;;;;;;10369330;28;20311;-65
2023/12/22 17:51:31;;;;;;;1.20;1.10;;;;;;;;;;10368871;28;20239;-66
2023/12/22 17:56:31;;;;;;;0.93;0.93;;;;;;;;;;10366991;28;20192;-66
2023/12/22 18:01:32;;;;;;;2.20;2.00;;;;;;;;;;10368204;28;20766;-65
2023/12/22 18:06:32;;;;;;;2.27;2.00;;;;;;;;;;10367990;28;20189;-65
2023/12/22 18:11:33;;;;;;;4.80;3.67;;;;;;;;;;10366232;28;20232;-65
2023/12/22 18:16:37;;;;;;;4.20;3.83;;;;;;;;;;10367452;28;20178;-67
2023/12/22 18:21:37;;;;;;;2.63;2.43;;;;;;;;;;10367384;28;20221;-65
2023/12/22 18:26:37;;;;;;;5.30;4.63;;;;;;;;;;10363468;28;20190;-65
2023/12/22 18:31:38;;;;;;;2.60;1.20;;;;;;;;;;10365623;28;20217;-65
2023/12/22 18:36:38;;;;;;;3.37;3.07;;;;;;;;;;10367114;28;20189;-65
2023/12/22 18:41:38;;;;;;;3.50;1.87;;;;;;;;;;10367306;28;20756;-64
2023/12/22 18:46:38;;;;;;;8.00;5.63;;;;;;;;;;10367267;28;20216;-64
2023/12/22 18:51:38;;;;;;;0.60;0.60;;;;;;;;;;10364596;28;20236;-64
2023/12/22 18:56:39;;;;;;;1.60;1.50;;;;;;;;;;10366867;28;20204;-65
2023/12/22 19:01:39;;;;;;;6.97;3.87;;;;;;;;;;10366686;28;20456;-65
2023/12/22 19:06:39;;;;;;;2.70;2.50;;;;;;;;;;10366269;28;20185;-65
2023/12/22 19:11:43;;;;;;;1.00;1.00;;;;;;;;;;10361854;28;20453;-65
2023/12/22 19:16:43;;;;;;;0.90;0.90;;;;;;;;;;10372449;28;20251;-65
2023/12/22 19:21:43;;;;;;;1.43;1.33;;;;;;;;;;10374866;28;20205;-65
2023/12/22 19:26:44;;;;;;;1.00;1.00;;;;;;;;;;10374746;28;20193;-65
2023/12/22 19:31:44;;;;;;;1.00;1.00;;;;;;;;;;10371408;28;20223;-65
2023/12/22 19:36:44;;;;;;;0.70;0.70;;;;;;;;;;10374051;28;20182;-63
2023/12/22 19:41:44;;;;;;;1.30;1.20;;;;;;;;;;10367418;28;20209;-65
2023/12/22 19:46:44;;;;;;;0.60;0.60;;;;;;;;;;10372041;28;20676;-64
2023/12/22 19:51:45;;;;;;;1.70;0.90;;;;;;;;;;10368436;28;20264;-64
2023/12/22 19:56:45;;;;;;;1.87;1.40;;;;;;;;;;10371936;28;20197;-65
2023/12/22 20:01:45;;;;;;;0.87;0.87;;;;;;;;;;10372613;28;20205;-64
2023/12/22 20:06:45;;;;;;;0.77;0.77;;;;;;;;;;10367965;28;20244;-65
2023/12/22 20:11:45;;;;;;;0.90;0.90;;;;;;;;;;10372140;28;20214;-66
2023/12/22 20:16:45;;;;;;;1.90;0.80;;;;;;;;;;10372125;28;20660;-66
2023/12/22 20:21:46;;;;;;;0.77;0.77;;;;;;;;;;10372222;28;20588;-65
2023/12/22 20:26:46;;;;;;;0.70;0.70;;;;;;;;;;10369661;28;20234;-65
2023/12/22 20:31:46;;;;;;;0.70;0.70;;;;;;;;;;10371643;28;20873;-66
2023/12/22 20:36:46;;;;;;;0.90;0.90;;;;;;;;;;10372001;28;20180;-65
2023/12/22 20:41:46;;;;;;;3.23;1.67;;;;;;;;;;10370139;28;20236;-66
2023/12/22 20:46:47;;;;;;;0.90;0.87;;;;;;;;;;10369634;28;20285;-65
2023/12/22 20:51:52;;;;;;;0.90;0.90;;;;;;;;;;10367629;28;20479;-65
2023/12/22 20:56:52;;;;;;;1.00;1.00;;;;;;;;;;10370864;28;20672;-66
2023/12/22 21:01:53;;;;;;;1.50;1.10;;;;;;;;;;10370650;28;20254;-65
2023/12/22 21:06:53;;;;;;;1.00;1.00;;;;;;;;;;10368309;28;20207;-66
2023/12/22 21:11:54;;;;;;;2.73;0.80;;;;;;;;;;10370425;28;20209;-65
2023/12/22 21:16:54;;;;;;;2.50;0.80;;;;;;;;;;10369239;28;20224;-65
2023/12/22 21:21:54;;;;;;;0.80;0.80;;;;;;;;;;10366465;28;20216;-65
2023/12/22 21:26:54;;;;;;;0.60;0.60;;;;;;;;;;10369314;28;20201;-65
2023/12/22 21:31:54;;;;;;;6.23;0.97;;;;;;;;;;10369389;28;20216;-65
2023/12/22 21:36:55;;;;;;;4.23;1.00;;;;;;;;;;10368985;28;20675;-65
2023/12/22 21:41:55;;;;;;;3.23;1.00;;;;;;;;;;10366594;28;20752;-64
2023/12/22 21:46:55;;;;;;;1.80;0.80;;;;;;;;;;10368824;28;20189;-65
2023/12/22 21:51:56;;;;;;;0.80;0.80;;;;;;;;;;10368185;28;20316;-65
2023/12/22 21:56:58;;;;;;;0.70;0.70;;;;;;;;;;10368149;28;20467;-65
2023/12/22 22:01:58;;;;;;;0.80;0.80;;;;;;;;;;10365864;28;20561;-65
2023/12/22 22:06:58;;;;;;;0.87;0.87;;;;;;;;;;10367988;28;20189;-65
2023/12/22 22:11:58;;;;;;;1.00;0.90;;;;;;;;;;10368230;28;20634;-66
2023/12/22 22:16:59;;;;;;;0.80;0.80;;;;;;;;;;10368187;28;20223;-65
2023/12/22 22:21:59;;;;;;;0.80;0.80;;;;;;;;;;10366420;28;20228;-65
2023/12/22 22:26:59;;;;;;;1.00;0.90;;;;;;;;;;10368057;28;20220;-65
2023/12/22 22:31:59;;;;;;;0.90;0.90;;;;;;;;;;10368076;28;20209;-65
2023/12/22 22:36:59;;;;;;;0.93;0.90;;;;;;;;;;10367633;28;20220;-66
2023/12/22 22:41:59;;;;;;;0.90;0.90;;;;;;;;;;10365831;28;20267;-65
2023/12/22 22:47:00;;;;;;;1.03;1.03;;;;;;;;;;10367676;28;20859;-66
2023/12/22 22:52:00;;;;;;;1.90;1.00;;;;;;;;;;10370295;28;20236;-67
2023/12/22 22:57:03;;;;;;;1.20;1.10;;;;;;;;;;10365568;28;20227;-67
2023/12/22 23:02:03;;;;;;;1.43;1.00;;;;;;;;;;10367271;28;20202;-66
2023/12/22 23:07:04;;;;;;;1.10;0.83;;;;;;;;;;10367495;28;20189;-67
2023/12/22 23:12:04;;;;;;;0.80;0.80;;;;;;;;;;10367159;28;20712;-66
2023/12/22 23:17:04;;;;;;;3.83;1.03;;;;;;;;;;10365183;28;20225;-66
2023/12/22 23:22:04;;;;;;;1.30;0.90;;;;;;;;;;10367128;28;20217;-67
2023/12/22 23:27:04;;;;;;;0.90;0.90;;;;;;;;;;10366847;28;20213;-66
2023/12/22 23:32:05;;;;;;;1.23;1.13;;;;;;;;;;10367158;28;20217;-67
2023/12/22 23:37:05;;;;;;;1.40;1.27;;;;;;;;;;10364452;28;20221;-68
2023/12/22 23:42:05;;;;;;;1.40;1.30;;;;;;;;;;10366932;28;20292;-68
2023/12/22 23:47:06;;;;;;;1.50;1.40;;;;;;;;;;10366507;28;20887;-68
2023/12/22 23:52:06;;;;;;;2.60;1.30;;;;;;;;;;10366401;28;20229;-69
2023/12/22 23:57:06;;;;;;;1.70;1.60;;;;;;;;;;10364425;28;20213;-68
